CheckWX is a tool to help pilots better visualize weather data.  It is not intended as a substitute for an official pre-flight weather briefing.

16:06:19 UTC

KSKA METAR
Fairchild AFB Airport
Spokane, Washington, USA
Current

28 mins ago

KSKA 171538Z 21014G18KT 10SM BR BKN008 OVC015 08/08 A2965 RMK AO2A VIS 3/4 RWY05 CIG 006 RWY05 SLP044 $
Observed
Oct-17 @ 15:38 UTC
Wind
  • 210° at 14 KTS
  • Gusting to 18 KTS
Visibility
10 SM
Flight Rules
IFR
Conditions
Mist
Cloud Levels
  • Broken at 800' AGL
  • Overcast at 1,500' AGL
Temperature
C / 46°F
Dewpoint
C / 46°F
Humidity
100%
Altimeter
29.65" Hg
Pressure
1004.02 hPa
Previous

1 hour ago

KSKA 171458Z 22015KT 10SM OVC007 08/08 A2965 RMK AO2A RWY05 CIG 006 RWY05 SLP044 60000 T00770077 58001 $
Observed
Oct-17 @ 14:58 UTC
Wind
  • 220° at 15 KTS
Visibility
10 SM
Flight Rules
IFR
Cloud Levels
  • Overcast at 700' AGL
Temperature
C / 46°F
Dewpoint
C / 46°F
Humidity
100%
Altimeter
29.65" Hg
Pressure
1004.02 hPa
Previous

1 hour ago

KSKA 171438Z 21015G20KT 10SM OVC007 08/08 A2964 RMK AO2A CIG 006 RWY05 SLP041 $
Observed
Oct-17 @ 14:38 UTC
Wind
  • 210° at 15 KTS
  • Gusting to 20 KTS
Visibility
10 SM
Flight Rules
IFR
Cloud Levels
  • Overcast at 700' AGL
Temperature
C / 46°F
Dewpoint
C / 46°F
Humidity
100%
Altimeter
29.64" Hg
Pressure
1003.72 hPa